Station: Yulara  

  Atmospheric Gas Attenuation - ITU Rec 676-11   ----------------- dB/100km -----------------
Date Time Temp RH % AH g/m3 Dew Point Wind Direction Speed kph Gust kph Barometer mB Rainfall Since 9am 24GHz 47GHz 76GHz 122GHz 134GHz 241GHz
07/05 19:40 18.1 39 6.03 3.9 20 28 1025 0 14.0 21.3 28.9 75.2 63.3 215.7
07/05 19:30 18.1 39 6.03 3.9 22 33 1025 0 14.0 21.3 28.9 75.2 63.3 215.7
07/05 19:20 18.1 39 6.03 3.9 26 32 1024.8 0 14.0 21.3 28.9 75.2 63.3 215.7
07/05 19:10 18.3 38 5.94 3.8 28 32 1024.7 0 13.8 21.1 28.5 74.1 62.1 211.5
07/05 19:00 18.3 40 6.25 4.5 22 33 1024.7 0 14.4 21.6 29.6 77.0 65.6 223.9
07/05 18:50 18.3 40 6.25 4.5 22 28 1024.6 0 14.4 21.6 29.6 77.0 65.6 223.9
07/05 18:40 18.3 40 6.25 4.5 19 24 1024.5 0 14.4 21.6 29.6 77.0 65.6 223.9
07/05 18:30 18.3 40 6.25 4.5 20 30 1024.5 0 14.4 21.6 29.6 77.0 65.6 223.9
07/05 18:20 18.3 39 6.1 4.1 24 28 1024.3 0 14.1 21.4 29.0 75.6 63.9 217.8
07/05 18:10 18.4 38 5.98 3.8 26 37 1024.2 0 13.9 21.2 28.6 74.4 62.4 212.8
07/05 18:00 18.6 38 6.05 4 20 30 1024.2 0 14.0 21.2 28.7 74.8 63.1 215.0
07/05 17:50 18.7 37 5.92 3.7 19 24 1024.1 0 13.7 21.0 28.3 73.5 61.5 209.6
07/05 17:40 19.1 37 6.06 4.1 28 39 1023.8 0 14.0 21.1 28.6 74.4 62.8 214.1
07/05 17:30 19.3 37 6.14 4.3 28 39 1023.8 0 14.2 21.2 28.8 75.0 63.5 216.7
07/05 17:20 19.7 35 5.94 3.8 32 43 1023.5 0 13.7 20.8 28.0 72.8 60.9 207.7
07/05 17:10 19.7 36 6.11 4.2 30 32 1023.5 0 14.1 21.0 28.5 74.3 62.8 214.4
07/05 17:00 19.3 36 5.97 3.9 30 41 1023.6 0 13.8 20.9 28.2 73.4 61.6 210.0
07/05 16:50 20.6 35 6.26 4.6 22 28 1023.3 0 14.4 21.0 28.7 74.8 63.8 217.9
07/05 16:40 20.3 34 5.98 3.9 32 37 1023.2 0 13.8 20.7 27.9 72.6 60.9 207.7
07/05 16:30 19.9 35 6.01 4 30 44 1023.4 0 13.9 20.8 28.1 73.2 61.6 210.0
07/05 16:20 20.1 36 6.26 4.6 26 32 1023.1 0 14.4 21.1 28.9 75.3 64.2 219.2
07/05 16:10 20.4 36 6.37 4.8 22 28 1023 0 14.6 21.2 29.2 76.0 65.2 222.7
07/05 16:00 20.5 36 6.41 4.9 30 43 1023.2 0 14.7 21.2 29.3 76.3 65.6 224.0
07/05 15:50 20.8 34 6.16 4.4 30 35 1023 0 14.1 20.8 28.3 73.7 62.5 213.4
07/05 15:40 20.9 33 6.01 4 24 33 1023 0 13.8 20.6 27.8 72.3 60.8 207.4
07/05 15:30 20.7 34 6.12 4.3 32 43 1023.1 0 14.1 20.8 28.2 73.5 62.2 212.1
07/05 15:20 20.6 34 6.08 4.2 35 41 1023.1 0 14.0 20.8 28.1 73.2 61.8 210.8
07/05 15:10 20.7 33 5.94 3.9 26 32 1023.2 0 13.7 20.6 27.6 71.9 60.2 205.2
07/05 15:00 20.9 34 6.19 4.5 32 46 1023.4 0 14.2 20.9 28.4 74.0 62.8 214.4
07/05 14:50 20.6 34 6.08 4.2 32 41 1023.2 0 14.0 20.8 28.1 73.2 61.8 210.9
07/05 14:40 20.4 35 6.19 4.4 35 41 1023.2 0 14.2 21.0 28.6 74.4 63.2 215.7
07/05 14:30 20.3 34 5.98 3.9 30 46 1023.4 0 13.8 20.7 27.9 72.6 60.9 207.8
07/05 14:20 20.5 35 6.23 4.5 30 39 1023.3 0 14.3 21.0 28.7 74.7 63.5 217.0
07/05 14:10 21.4 34 6.37 4.9 24 28 1023.5 0 14.6 21.0 28.8 75.1 64.4 220.1
07/05 14:00 20.7 34 6.12 4.3 32 46 1023.7 0 14.1 20.8 28.2 73.5 62.2 212.2
07/05 13:50 20.2 34 5.94 3.9 32 39 1023.7 0 13.7 20.7 27.8 72.4 60.6 206.5
07/05 13:40 20 35 6.05 4.1 32 50 1024 0 13.9 20.9 28.3 73.5 62.0 211.4
07/05 13:30 19.9 35 6.01 4 28 43 1024.3 0 13.9 20.9 28.2 73.3 61.6 210.1
07/05 13:20 20.1 36 6.26 4.6 30 35 1024.3 0 14.4 21.2 28.9 75.4 64.3 219.4
07/05 13:10 20.5 35 6.23 4.5 32 35 1024.4 0 14.3 21.0 28.7 74.8 63.6 217.2
07/05 13:00 20.1 35 6.08 4.2 30 43 1024.8 0 14.0 20.9 28.4 73.8 62.3 212.4
07/05 12:50 19.9 35 6.01 4 32 37 1024.7 0 13.9 20.9 28.2 73.3 61.6 210.2
07/05 12:40 19.3 35 5.8 3.5 33 41 1025 0 13.4 20.7 27.7 72.0 59.8 203.5
07/05 12:30 19 36 5.87 3.6 32 48 1025.2 0 13.6 20.9 28.0 72.9 60.8 207.1
07/05 12:20 19.4 38 6.34 4.7 22 30 1025.2 0 14.6 21.5 29.5 76.8 65.8 224.6
07/05 12:10 18.8 39 6.28 4.6 30 35 1025.3 0 14.5 21.5 29.5 76.9 65.6 223.9
07/05 12:00 19 37 6.03 4 32 43 1025.5 0 13.9 21.1 28.6 74.4 62.6 213.4
07/05 11:50 18.9 38 6.16 4.3 30 39 1025.6 0 14.2 21.3 29.1 75.7 64.2 218.9
07/05 11:40 18.2 39 6.06 4 35 44 1025.9 0 14.0 21.4 29.0 75.4 63.6 216.8
07/05 11:30 17.9 41 6.26 4.5 32 41 1026.1 0 14.5 21.7 29.8 77.6 66.1 225.7
07/05 11:20 17.8 41 6.22 4.4 28 33 1026.1 0 14.4 21.7 29.7 77.3 65.8 224.4
07/05 11:10 18.1 40 6.18 4.3 33 44 1026.2 0 14.3 21.6 29.4 76.7 65.1 221.9
07/05 11:00 18.2 42 6.53 5.1 33 48 1026.4 0 15.0 22.1 30.6 79.9 69.0 235.9
07/05 10:50 17.9 42 6.41 4.8 35 44 1026.4 0 14.8 22.0 30.3 79.0 67.9 231.9
07/05 10:40 17.3 44 6.48 4.9 35 43 1026.5 0 14.9 22.2 30.8 80.3 69.2 236.5
07/05 10:30 16.8 45 6.43 4.8 35 50 1026.6 0 14.9 22.3 30.8 80.3 69.1 235.9
07/05 10:20 16.6 47 6.64 5.3 26 35 1026.7 0 15.3 22.6 31.6 82.5 71.7 245.2
07/05 10:10 16.4 46 6.42 4.8 37 48 1026.7 0 14.8 22.3 30.9 80.6 69.3 236.7
07/05 10:00 16.4 46 6.42 4.8 28 43 1026.7 0 14.8 22.3 30.9 80.6 69.3 236.7
07/05 09:50 15.9 49 6.64 5.2 20 28 1026.7 0 15.3 22.8 31.9 83.2 72.4 247.4
07/05 09:40 15.7 49 6.56 5 24 30 1026.6 0 15.2 22.7 31.7 82.7 71.6 244.6
07/05 09:30 15.7 50 6.69 5.3 26 43 1026.6 0 15.4 22.9 32.2 83.9 73.2 250.1
07/05 09:20 15 52 6.67 5.2 22 30 1026.5 0 15.4 23.0 32.4 84.5 73.5 251.4
07/05 09:10 14.6 53 6.63 5.1 22 28 1026.5 0 15.4 23.1 32.4 84.5 73.4 250.9
07/05 09:00 14.1 54 6.55 4.9 20 30 1026.5 0 15.2 23.1 32.3 84.2 72.9 249.0
07/05 08:50 13.5 56 6.55 4.9 22 26 1026.3 0 15.2 23.2 32.5 84.8 73.5 250.9
07/05 08:40 13.2 57 6.55 4.9 22 26 1026.2 0 15.2 23.3 32.6 85.1 73.7 251.8
07/05 08:30 13 59 6.69 5.2 22 28 1026.2 0 15.5 23.6 33.3 86.8 75.7 258.5
07/05 08:20 12.5 60 6.6 5 19 26 1026 0 15.4 23.6 33.1 86.4 75.0 256.1
07/05 08:10 12 62 6.61 5 19 22 1025.9 0 15.4 23.7 33.3 87.0 75.6 258.2
07/05 08:00 11.5 63 6.51 4.7 17 24 1025.8 0 15.2 23.7 33.2 86.5 74.8 255.3
07/05 07:50 10.9 65 6.47 4.6 15 19 1025.5 0 15.2 23.8 33.2 86.7 74.8 255.4
07/05 07:40 10.4 67 6.46 4.5 17 20 1025.4 0 15.2 23.9 33.4 87.2 75.2 256.5
07/05 07:30 10 68 6.39 4.4 13 19 1025.6 0 15.0 23.9 33.3 86.9 74.7 254.7
07/05 07:20 9.8 68 6.31 4.2 13 15 1025.2 0 14.9 23.8 33.1 86.2 73.8 251.6
07/05 07:10 9.6 68 6.23 4 11 13 1025.2 0 14.7 23.7 32.8 85.6 73.0 248.6
07/05 07:00 9.7 68 6.27 4.1 15 19 1025.2 0 14.8 23.8 32.9 85.9 73.4 250.1
07/05 06:50 9.6 68 6.23 4 13 15 1024.9 0 14.7 23.7 32.8 85.6 72.9 248.6
07/05 06:40 9.8 67 6.22 4 13 19 1024.8 0 14.7 23.6 32.7 85.3 72.6 247.5
07/05 06:30 9.8 67 6.22 4 13 22 1024.8 0 14.7 23.6 32.7 85.3 72.6 247.5
07/05 06:20 9.8 67 6.22 4 15 19 1024.5 0 14.7 23.6 32.7 85.2 72.6 247.4
07/05 06:10 10 66 6.2 4 15 20 1024.4 0 14.6 23.5 32.5 84.8 72.2 245.9
07/05 06:00 9.9 66 6.16 3.9 15 19 1024.4 0 14.5 23.5 32.4 84.5 71.7 244.4
07/05 05:50 10.1 65 6.15 3.8 13 17 1024.3 0 14.5 23.4 32.3 84.2 71.4 243.3
07/05 05:40 10.5 63 6.11 3.8 15 17 1024.3 0 14.4 23.3 32.0 83.3 70.6 240.3
07/05 05:30 11 62 6.21 4 17 24 1024.3 0 14.6 23.3 32.2 83.8 71.4 243.2
07/05 05:20 11.4 60 6.16 3.9 17 19 1024.2 0 14.5 23.1 31.8 82.9 70.4 239.8
07/05 05:10 11.7 59 6.17 4 19 22 1024.2 0 14.5 23.0 31.7 82.7 70.2 239.3
07/05 05:00 11.7 59 6.17 4 17 22 1024.3 0 14.5 23.0 31.7 82.7 70.2 239.4
07/05 04:50 11.9 58 6.14 3.9 17 20 1024.2 0 14.4 22.9 31.5 82.2 69.7 237.4
07/05 04:40 12.1 57 6.11 3.9 19 24 1024.1 0 14.4 22.8 31.3 81.7 69.1 235.5
07/05 04:30 12.2 57 6.15 3.9 20 28 1024.1 0 14.4 22.9 31.4 82.0 69.5 237.0
07/05 04:20 12.3 57 6.19 4 20 24 1023.9 0 14.5 22.9 31.6 82.2 69.9 238.4
07/05 04:10 12.2 57 6.15 3.9 19 24 1023.8 0 14.4 22.9 31.4 81.9 69.5 236.9
07/05 04:00 12.1 58 6.22 4.1 20 26 1023.9 0 14.6 23.0 31.7 82.8 70.5 240.3
07/05 03:50 12.1 58 6.22 4.1 19 22 1023.7 0 14.6 23.0 31.7 82.7 70.5 240.2
07/05 03:40 12 58 6.18 4 19 26 1023.7 0 14.5 23.0 31.6 82.4 70.1 238.8
07/05 03:30 11.8 59 6.21 4.1 17 24 1023.9 0 14.6 23.1 31.8 83.0 70.6 240.7
07/05 03:20 11.6 60 6.24 4.1 15 19 1023.7 0 14.6 23.2 32.0 83.5 71.2 242.6
07/05 03:10 11.5 60 6.2 4 17 19 1023.8 0 14.6 23.1 31.9 83.2 70.8 241.2

Last Refresh: 07-May-2026 19:45:47

Bureau of Meteorology